Hauptseite
METAR-TAF:

METAR-TAF

Flughäfen :

Middle Wallop Airfield

Middle Wallop, England

Breite: 51-09N, Länge: 001-34W, Höhe: 91 m

Beobachtung

Neuester Wetterbericht von vor 55 Minuten, um 17:50 UTC
Wind 11 kt aus Süd/Südost
Temperatur 4°C
Luftfeuchtigkeit 65%
Luftdruck 1011 hPa
Sichtweite 10 km oder mehr

METAR: EGVP 181750Z AUTO 15011KT 9999 // BKN080/// BKN180/// 04/M02 Q1011

Zeit: 18:45 (18:45 UTC)

Prognose

Neuester Wetterbericht von vor 5 Stunden und 27 Minuten, um 13:18 UTC
Gültige Prognose vom 18 um 15 UTC bis 18 um 18 UTC
Wind 15 kt aus Süd/Südost, Böen bis zu 25 kt
Sichtweite 10 km oder mehr
Aufgelockert bewölkt in der Höhe von 3000 ft
Wahrscheinlichkeit 30% :
Zeitweise
vom 18 um 16 UTC bis 18 um 18 UTC
Aufgelockert bewölkt in der Höhe von 2200 ft

TAF: EGVP 181318Z 1815/1818 16015G25KT 9999 SCT030 PROB30 TEMPO 1816/1818 SCT022

Wetterbeobachtungen und Prognosen von mehr als 4000 Flughäfen (METAR und TAF Bericht).

Die verfügbaren Stationen werden durch gelbe und rote Markierungen auf der Karte dargestellt.

Führen Sie die Maus auf sie, um den Namen der Station zu sehen.

Darauf klicken, um die Beobachtung von Wetterbeobachtungen und Prognosen zu sehen.

Um die Karte zu ändern : klicken Sie auf den grünen Tasten mit einem schwarzen Kreuz Zum Vergrößern, auf den grünen Button mit einem Gedankenstrich zu verkleinern, oder auf die grünen Pfeile für benachbarte Karten.


METAR-TAF: